Airfield :
LOGIN :

Register | Disclaimer

   EN    FR    IT 

 










Legend :    VFR   Marginal VFR   IFR   Intensive IFR   Very Intensive IFR
Visi :
Ceiling :
>= 8 km
>= 3000ft
5 to 8 km
1000 to 3000 ft
1500m to 5 km
500 to 1000 ft
800 to 1500m
200 to 500 ft
< 800m
< 200 ft
Symbols :   Thunderstorms  Fog  Heavy snow  Heavy precipitations  Wind > 20 kt
SIGMETs :     Misc.  Thunderstorms  Icing  Turbulence  Mountain Waves  Volcanic Ashes







- Airport Elevation : 3 ft
- IATA code : DHR


EHKD - Den Helder De Kooy

CURRENT METAR :
  • 171425Z AUTO 25010KT 220V280 9999 NCD 20/14 Q1018 BLU 24010KT 9999 FEW028

EXPIRED METARs :
  • 171355Z AUTO 25010KT 220V290 9999 NCD 21/14 Q1018 BLU 24010KT 9999 FEW028
  • 171325Z AUTO 25012KT 9999 NCD 21/14 Q1018 BLU 24010KT 9999 FEW028
  • 171255Z AUTO 24011KT 220V280 9999 BKN250 21/15 Q1019 BLU 24010KT 9999 FEW028
  • 171237Z AUTO 24011KT 210V280 9999 FEW270 21/14 Q1019 BLU 24010KT 9999 FEW028
  • 171225Z AUTO 24011KT 210V270 9999 SCT044 BKN051 22/15 Q1019 BLU 24010KT 9999 FEW028 SCT045
  • 171155Z AUTO 23013KT 200V260 9999 BKN046 BKN050 BKN057 22/15 Q1019 BLU 24010KT 9999 FEW028 SCT045

TAF TAF EHKD
Valid from the 17 at 13:00 until the 18 at 01:00 UTC


171216Z 1713/1801 24010KT 9999 SCT045
BECMG 1713/1715 26006KT
BECMG 1716/1718 VRB03KT
No reported NOTAMs for that airfield.



MET'MAP, your aeronautical weather chart ! - Copyright ORBIFLY December 2007 - Disclaimer

ORBIFLY MET'MAP TEAM :

Programming & Development : Alexandra Zaïnal
Concept & Development : Baudouin d'Aumeries
Co-Development & Prog : Marc-Olivier Méhu
Technical & hardware support : Manuel Goepfert

Contact : metmap@orbifly.com




SOURCES & CREDITS :

   NOAA